sensor_id;sensor_type;location;lat;lon;timestamp;pressure;altitude;pressure_sealevel;temperature
13219;BMP180;6674;49.152;11.918;2023-02-13T00:00:03;97950.94;;;3.99
13219;BMP180;6674;49.152;11.918;2023-02-13T00:02:31;97955.09;;;4.00
13219;BMP180;6674;49.152;11.918;2023-02-13T00:04:58;97952.53;;;4.00
13219;BMP180;6674;49.152;11.918;2023-02-13T00:07:26;97949.97;;;4.00
13219;BMP180;6674;49.152;11.918;2023-02-13T00:09:53;97953.75;;;3.96
13219;BMP180;6674;49.152;11.918;2023-02-13T00:12:20;97948.38;;;3.99
13219;BMP180;6674;49.152;11.918;2023-02-13T00:14:46;97950.53;;;4.04
13219;BMP180;6674;49.152;11.918;2023-02-13T00:17:14;97948.56;;;4.07
13219;BMP180;6674;49.152;11.918;2023-02-13T00:19:41;97950.41;;;4.05
13219;BMP180;6674;49.152;11.918;2023-02-13T00:22:07;97962.50;;;4.03
13219;BMP180;6674;49.152;11.918;2023-02-13T00:24:56;97963.59;;;4.01
13219;BMP180;6674;49.152;11.918;2023-02-13T00:27:23;97964.44;;;3.90
13219;BMP180;6674;49.152;11.918;2023-02-13T00:29:49;97957.44;;;3.83
13219;BMP180;6674;49.152;11.918;2023-02-13T00:32:16;97955.19;;;3.89
13219;BMP180;6674;49.152;11.918;2023-02-13T00:34:44;97955.88;;;3.91
13219;BMP180;6674;49.152;11.918;2023-02-13T00:37:10;97945.53;;;3.93
13219;BMP180;6674;49.152;11.918;2023-02-13T00:39:37;97944.44;;;3.95
13219;BMP180;6674;49.152;11.918;2023-02-13T00:42:05;97950.94;;;3.99
13219;BMP180;6674;49.152;11.918;2023-02-13T00:45:01;97948.25;;;4.01
13219;BMP180;6674;49.152;11.918;2023-02-13T00:47:27;97956.34;;;4.06
13219;BMP180;6674;49.152;11.918;2023-02-13T00:49:55;97963.47;;;4.02
13219;BMP180;6674;49.152;11.918;2023-02-13T00:52:24;97954.91;;;3.92
13219;BMP180;6674;49.152;11.918;2023-02-13T00:54:50;97962.16;;;3.87
13219;BMP180;6674;49.152;11.918;2023-02-13T00:57:18;97951.78;;;3.80
13219;BMP180;6674;49.152;11.918;2023-02-13T00:59:45;97957.38;;;3.74
13219;BMP180;6674;49.152;11.918;2023-02-13T01:02:11;97957.69;;;3.60
13219;BMP180;6674;49.152;11.918;2023-02-13T01:04:38;97960.03;;;3.52
13219;BMP180;6674;49.152;11.918;2023-02-13T01:07:04;97955.59;;;3.44
13219;BMP180;6674;49.152;11.918;2023-02-13T01:09:31;97952.16;;;3.35
13219;BMP180;6674;49.152;11.918;2023-02-13T01:11:58;97956.94;;;3.28
13219;BMP180;6674;49.152;11.918;2023-02-13T01:14:25;97948.97;;;3.22
13219;BMP180;6674;49.152;11.918;2023-02-13T01:16:54;97952.84;;;3.16
13219;BMP180;6674;49.152;11.918;2023-02-13T01:19:21;97954.91;;;3.11
13219;BMP180;6674;49.152;11.918;2023-02-13T01:21:47;97942.78;;;3.04
13219;BMP180;6674;49.152;11.918;2023-02-13T01:24:14;97945.25;;;2.95
13219;BMP180;6674;49.152;11.918;2023-02-13T01:26:40;97938.06;;;2.89
13219;BMP180;6674;49.152;11.918;2023-02-13T01:29:08;97941.81;;;2.85
13219;BMP180;6674;49.152;11.918;2023-02-13T01:31:38;97950.66;;;2.81
13219;BMP180;6674;49.152;11.918;2023-02-13T01:34:05;97951.78;;;2.77
13219;BMP180;6674;49.152;11.918;2023-02-13T01:36:31;97949.97;;;2.68
13219;BMP180;6674;49.152;11.918;2023-02-13T01:38:58;97941.50;;;2.67
13219;BMP180;6674;49.152;11.918;2023-02-13T01:41:26;97941.63;;;2.66
13219;BMP180;6674;49.152;11.918;2023-02-13T01:43:54;97931.25;;;2.58
13219;BMP180;6674;49.152;11.918;2023-02-13T01:46:24;97933.19;;;2.55
13219;BMP180;6674;49.152;11.918;2023-02-13T01:48:55;97928.72;;;2.47
13219;BMP180;6674;49.152;11.918;2023-02-13T01:51:25;97934.94;;;2.43
13219;BMP180;6674;49.152;11.918;2023-02-13T01:53:56;97940.66;;;2.36
13219;BMP180;6674;49.152;11.918;2023-02-13T01:56:26;97938.56;;;2.30
13219;BMP180;6674;49.152;11.918;2023-02-13T01:58:57;97940.53;;;2.26
13219;BMP180;6674;49.152;11.918;2023-02-13T02:01:26;97936.38;;;2.25
13219;BMP180;6674;49.152;11.918;2023-02-13T02:03:57;97940.44;;;2.28
13219;BMP180;6674;49.152;11.918;2023-02-13T02:06:33;97935.44;;;2.26
13219;BMP180;6674;49.152;11.918;2023-02-13T02:09:04;97938.09;;;2.25
13219;BMP180;6674;49.152;11.918;2023-02-13T02:11:35;97939.75;;;2.26
13219;BMP180;6674;49.152;11.918;2023-02-13T02:14:02;97937.31;;;2.24
13219;BMP180;6674;49.152;11.918;2023-02-13T02:16:30;97941.94;;;2.19
13219;BMP180;6674;49.152;11.918;2023-02-13T02:19:00;97943.34;;;2.13
13219;BMP180;6674;49.152;11.918;2023-02-13T02:21:49;97947.94;;;2.08
13219;BMP180;6674;49.152;11.918;2023-02-13T02:24:42;97934.28;;;1.98
13219;BMP180;6674;49.152;11.918;2023-02-13T02:27:50;97924.81;;;1.89
13219;BMP180;6674;49.152;11.918;2023-02-13T02:33:30;97922.97;;;1.80
13219;BMP180;6674;49.152;11.918;2023-02-13T02:36:10;97919.94;;;1.75
13219;BMP180;6674;49.152;11.918;2023-02-13T02:38:53;97920.06;;;1.73
13219;BMP180;6674;49.152;11.918;2023-02-13T02:41:38;97905.28;;;1.68
13219;BMP180;6674;49.152;11.918;2023-02-13T02:44:16;97904.44;;;1.67
13219;BMP180;6674;49.152;11.918;2023-02-13T02:46:54;97907.25;;;1.64
13219;BMP180;6674;49.152;11.918;2023-02-13T02:49:49;97905.59;;;1.63
13219;BMP180;6674;49.152;11.918;2023-02-13T02:52:42;97918.09;;;1.55
13219;BMP180;6674;49.152;11.918;2023-02-13T02:55:19;97912.78;;;1.58
13219;BMP180;6674;49.152;11.918;2023-02-13T02:57:57;97921.09;;;1.60
13219;BMP180;6674;49.152;11.918;2023-02-13T03:00:59;97918.66;;;1.59
13219;BMP180;6674;49.152;11.918;2023-02-13T03:03:45;97923.53;;;1.62
13219;BMP180;6674;49.152;11.918;2023-02-13T03:06:36;97913.94;;;1.65
13219;BMP180;6674;49.152;11.918;2023-02-13T03:09:08;97915.34;;;1.69
13219;BMP180;6674;49.152;11.918;2023-02-13T03:11:55;97913.25;;;1.74
13219;BMP180;6674;49.152;11.918;2023-02-13T03:14:39;97916.38;;;1.77
13219;BMP180;6674;49.152;11.918;2023-02-13T03:17:10;97915.94;;;1.83
13219;BMP180;6674;49.152;11.918;2023-02-13T03:20:08;97914.06;;;1.85
13219;BMP180;6674;49.152;11.918;2023-02-13T03:23:06;97918.00;;;1.89
13219;BMP180;6674;49.152;11.918;2023-02-13T03:25:50;97913.47;;;1.93
13219;BMP180;6674;49.152;11.918;2023-02-13T03:28:35;97916.59;;;1.96
13219;BMP180;6674;49.152;11.918;2023-02-13T03:31:29;97913.59;;;2.02
13219;BMP180;6674;49.152;11.918;2023-02-13T03:34:01;97920.88;;;2.07
13219;BMP180;6674;49.152;11.918;2023-02-13T03:36:34;97919.72;;;2.11
13219;BMP180;6674;49.152;11.918;2023-02-13T03:39:24;97920.16;;;2.15
13219;BMP180;6674;49.152;11.918;2023-02-13T03:41:59;97920.16;;;2.15
13219;BMP180;6674;49.152;11.918;2023-02-13T03:44:30;97920.88;;;2.17
13219;BMP180;6674;49.152;11.918;2023-02-13T03:47:00;97922.50;;;2.18
13219;BMP180;6674;49.152;11.918;2023-02-13T03:49:30;97920.75;;;2.19
13219;BMP180;6674;49.152;11.918;2023-02-13T03:52:20;97926.66;;;2.19
13219;BMP180;6674;49.152;11.918;2023-02-13T03:54:53;97927.47;;;2.20
13219;BMP180;6674;49.152;11.918;2023-02-13T03:57:40;97926.44;;;2.22
13219;BMP180;6674;49.152;11.918;2023-02-13T04:00:28;97927.00;;;2.26
13219;BMP180;6674;49.152;11.918;2023-02-13T04:03:00;97926.19;;;2.25
13219;BMP180;6674;49.152;11.918;2023-02-13T04:05:29;97923.41;;;2.28
13219;BMP180;6674;49.152;11.918;2023-02-13T04:07:57;97915.53;;;2.31
13219;BMP180;6674;49.152;11.918;2023-02-13T04:10:27;97924.81;;;2.32
13219;BMP180;6674;49.152;11.918;2023-02-13T04:13:04;97925.50;;;2.34
13219;BMP180;6674;49.152;11.918;2023-02-13T04:15:41;97926.75;;;2.40
13219;BMP180;6674;49.152;11.918;2023-02-13T04:18:12;97928.03;;;2.45
13219;BMP180;6674;49.152;11.918;2023-02-13T04:20:45;97907.03;;;2.42
13219;BMP180;6674;49.152;11.918;2023-02-13T04:23:11;97920.13;;;2.48
13219;BMP180;6674;49.152;11.918;2023-02-13T04:25:41;97916.53;;;2.51
13219;BMP180;6674;49.152;11.918;2023-02-13T04:28:09;97920.59;;;2.53
13219;BMP180;6674;49.152;11.918;2023-02-13T04:30:36;97919.66;;;2.54
13219;BMP180;6674;49.152;11.918;2023-02-13T04:33:03;97924.75;;;2.54
13219;BMP180;6674;49.152;11.918;2023-02-13T04:35:32;97916.75;;;2.58
13219;BMP180;6674;49.152;11.918;2023-02-13T04:37:59;97908.88;;;2.61
13219;BMP180;6674;49.152;11.918;2023-02-13T04:40:26;97912.00;;;2.65
13219;BMP180;6674;49.152;11.918;2023-02-13T04:42:54;97914.88;;;2.71
13219;BMP180;6674;49.152;11.918;2023-02-13T04:45:21;97906.38;;;2.71
13219;BMP180;6674;49.152;11.918;2023-02-13T04:47:51;97905.47;;;2.72
13219;BMP180;6674;49.152;11.918;2023-02-13T04:50:19;97900.38;;;2.72
13219;BMP180;6674;49.152;11.918;2023-02-13T04:52:49;97909.66;;;2.73
13219;BMP180;6674;49.152;11.918;2023-02-13T04:55:17;97907.91;;;2.73
13219;BMP180;6674;49.152;11.918;2023-02-13T04:57:45;97905.13;;;2.76
13219;BMP180;6674;49.152;11.918;2023-02-13T05:00:16;97905.91;;;2.77
13219;BMP180;6674;49.152;11.918;2023-02-13T05:02:43;97904.44;;;2.74
13219;BMP180;6674;49.152;11.918;2023-02-13T05:05:09;97906.59;;;2.79
13219;BMP180;6674;49.152;11.918;2023-02-13T05:07:37;97910.91;;;2.78
13219;BMP180;6674;49.152;11.918;2023-02-13T05:10:05;97909.88;;;2.81
13219;BMP180;6674;49.152;11.918;2023-02-13T05:12:32;97914.69;;;2.84
13219;BMP180;6674;49.152;11.918;2023-02-13T05:15:01;97906.00;;;2.86
13219;BMP180;6674;49.152;11.918;2023-02-13T05:17:30;97910.31;;;2.86
13219;BMP180;6674;49.152;11.918;2023-02-13T05:19:58;97911.66;;;2.90
13219;BMP180;6674;49.152;11.918;2023-02-13T05:22:30;97920.22;;;2.89
13219;BMP180;6674;49.152;11.918;2023-02-13T05:25:15;97913.19;;;2.92
13219;BMP180;6674;49.152;11.918;2023-02-13T05:27:41;97920.66;;;2.94
13219;BMP180;6674;49.152;11.918;2023-02-13T05:30:09;97919.88;;;2.93
13219;BMP180;6674;49.152;11.918;2023-02-13T05:32:38;97920.66;;;2.94
13219;BMP180;6674;49.152;11.918;2023-02-13T05:35:07;97920.44;;;2.97
13219;BMP180;6674;49.152;11.918;2023-02-13T05:37:35;97924.97;;;2.93
13219;BMP180;6674;49.152;11.918;2023-02-13T05:40:02;97927.41;;;2.95
13219;BMP180;6674;49.152;11.918;2023-02-13T05:42:28;97939.22;;;2.96
13219;BMP180;6674;49.152;11.918;2023-02-13T05:44:55;97932.25;;;2.98
13219;BMP180;6674;49.152;11.918;2023-02-13T05:47:22;97934.56;;;3.00
13219;BMP180;6674;49.152;11.918;2023-02-13T05:49:49;97933.63;;;3.01
13219;BMP180;6674;49.152;11.918;2023-02-13T05:52:16;97932.72;;;3.02
13219;BMP180;6674;49.152;11.918;2023-02-13T05:54:43;97936.63;;;3.06
13219;BMP180;6674;49.152;11.918;2023-02-13T05:57:09;97943.34;;;3.07
13219;BMP180;6674;49.152;11.918;2023-02-13T05:59:36;97940.91;;;3.06
13219;BMP180;6674;49.152;11.918;2023-02-13T06:02:04;97941.72;;;3.06
13219;BMP180;6674;49.152;11.918;2023-02-13T06:04:36;97947.53;;;3.08
13219;BMP180;6674;49.152;11.918;2023-02-13T06:07:07;97943.91;;;3.11
13219;BMP180;6674;49.152;11.918;2023-02-13T06:09:33;97939.38;;;3.14
13219;BMP180;6674;49.152;11.918;2023-02-13T06:12:00;97941.69;;;3.17
13219;BMP180;6674;49.152;11.918;2023-02-13T06:14:27;97953.41;;;3.20
13219;BMP180;6674;49.152;11.918;2023-02-13T06:16:53;97954.19;;;3.20
13219;BMP180;6674;49.152;11.918;2023-02-13T06:19:20;97953.41;;;3.20
13219;BMP180;6674;49.152;11.918;2023-02-13T06:21:47;97954.44;;;3.17
13219;BMP180;6674;49.152;11.918;2023-02-13T06:24:16;97954.44;;;3.17
13219;BMP180;6674;49.152;11.918;2023-02-13T06:26:43;97971.25;;;3.20
13219;BMP180;6674;49.152;11.918;2023-02-13T06:29:10;97964.16;;;3.23
13219;BMP180;6674;49.152;11.918;2023-02-13T06:31:37;97960.66;;;3.24
13219;BMP180;6674;49.152;11.918;2023-02-13T06:34:04;97969.69;;;3.28
13219;BMP180;6674;49.152;11.918;2023-02-13T06:36:30;97962.03;;;3.28
13219;BMP180;6674;49.152;11.918;2023-02-13T06:38:57;97968.50;;;3.32
13219;BMP180;6674;49.152;11.918;2023-02-13T06:41:25;97972.56;;;3.35
13219;BMP180;6674;49.152;11.918;2023-02-13T06:43:51;97971.72;;;3.34
13219;BMP180;6674;49.152;11.918;2023-02-13T06:46:19;97974.28;;;3.34
13219;BMP180;6674;49.152;11.918;2023-02-13T06:48:46;97975.25;;;3.33
13219;BMP180;6674;49.152;11.918;2023-02-13T06:51:12;97976.59;;;3.37
13219;BMP180;6674;49.152;11.918;2023-02-13T06:53:39;97969.91;;;3.36
13219;BMP180;6674;49.152;11.918;2023-02-13T06:56:06;97978.78;;;3.42
13219;BMP180;6674;49.152;11.918;2023-02-13T06:58:36;97982.13;;;3.42
13219;BMP180;6674;49.152;11.918;2023-02-13T07:01:04;97979.59;;;3.42
13219;BMP180;6674;49.152;11.918;2023-02-13T07:03:30;97976.13;;;3.43
13219;BMP180;6674;49.152;11.918;2023-02-13T07:05:57;97977.44;;;3.38
13219;BMP180;6674;49.152;11.918;2023-02-13T07:08:29;97984.00;;;3.40
13219;BMP180;6674;49.152;11.918;2023-02-13T07:10:55;97991.53;;;3.42
13219;BMP180;6674;49.152;11.918;2023-02-13T07:13:23;97994.78;;;3.43
13219;BMP180;6674;49.152;11.918;2023-02-13T07:15:51;97991.19;;;3.46
13219;BMP180;6674;49.152;11.918;2023-02-13T07:18:19;97995.34;;;3.47
13219;BMP180;6674;49.152;11.918;2023-02-13T07:20:45;97990.22;;;3.47
13219;BMP180;6674;49.152;11.918;2023-02-13T07:23:39;97992.72;;;3.38
13219;BMP180;6674;49.152;11.918;2023-02-13T07:26:06;97994.66;;;3.45
13219;BMP180;6674;49.152;11.918;2023-02-13T07:28:32;97994.41;;;3.48
13219;BMP180;6674;49.152;11.918;2023-02-13T07:31:04;97998.31;;;3.52
13219;BMP180;6674;49.152;11.918;2023-02-13T07:33:32;98000.06;;;3.51
13219;BMP180;6674;49.152;11.918;2023-02-13T07:35:58;97995.78;;;3.52
13219;BMP180;6674;49.152;11.918;2023-02-13T07:38:28;98002.38;;;3.54
13219;BMP180;6674;49.152;11.918;2023-02-13T07:40:57;97997.16;;;3.56
13219;BMP180;6674;49.152;11.918;2023-02-13T07:43:24;97995.03;;;3.61
13219;BMP180;6674;49.152;11.918;2023-02-13T07:45:50;97997.16;;;3.56
13219;BMP180;6674;49.152;11.918;2023-02-13T07:48:21;97994.50;;;3.57
13219;BMP180;6674;49.152;11.918;2023-02-13T07:50:47;97999.22;;;3.62
13219;BMP180;6674;49.152;11.918;2023-02-13T07:53:14;98002.47;;;3.64
13219;BMP180;6674;49.152;11.918;2023-02-13T07:55:41;98002.91;;;3.69
13219;BMP180;6674;49.152;11.918;2023-02-13T07:58:07;97996.59;;;3.73
13219;BMP180;6674;49.152;11.918;2023-02-13T08:00:34;97995.78;;;3.72
13219;BMP180;6674;49.152;11.918;2023-02-13T08:03:01;98001.47;;;3.76
13219;BMP180;6674;49.152;11.918;2023-02-13T08:05:30;97995.19;;;3.80
13219;BMP180;6674;49.152;11.918;2023-02-13T08:07:57;97999.09;;;3.84
13219;BMP180;6674;49.152;11.918;2023-02-13T08:10:24;97992.91;;;3.86
13219;BMP180;6674;49.152;11.918;2023-02-13T08:13:10;97997.41;;;3.93
13219;BMP180;6674;49.152;11.918;2023-02-13T08:15:37;97998.19;;;3.94
13219;BMP180;6674;49.152;11.918;2023-02-13T08:18:04;97991.91;;;3.98
13219;BMP180;6674;49.152;11.918;2023-02-13T08:20:33;97996.66;;;4.02
13219;BMP180;6674;49.152;11.918;2023-02-13T08:23:04;97998.00;;;4.06
13219;BMP180;6674;49.152;11.918;2023-02-13T08:25:31;98001.25;;;4.08
13219;BMP180;6674;49.152;11.918;2023-02-13T08:27:58;97995.09;;;4.11
13219;BMP180;6674;49.152;11.918;2023-02-13T08:30:35;98001.78;;;4.12
13219;BMP180;6674;49.152;11.918;2023-02-13T08:33:03;98002.09;;;4.18
13219;BMP180;6674;49.152;11.918;2023-02-13T08:35:29;98005.06;;;4.23
13219;BMP180;6674;49.152;11.918;2023-02-13T08:38:00;98003.22;;;4.25
13219;BMP180;6674;49.152;11.918;2023-02-13T08:40:28;98016.13;;;4.33
13219;BMP180;6674;49.152;11.918;2023-02-13T08:42:59;98015.75;;;4.37
13219;BMP180;6674;49.152;11.918;2023-02-13T08:45:27;98008.09;;;4.37
13219;BMP180;6674;49.152;11.918;2023-02-13T08:47:56;98014.59;;;4.41
13219;BMP180;6674;49.152;11.918;2023-02-13T08:50:23;98017.03;;;4.43
13219;BMP180;6674;49.152;11.918;2023-02-13T08:52:51;98020.13;;;4.46
13219;BMP180;6674;49.152;11.918;2023-02-13T08:55:21;98026.72;;;4.49
13219;BMP180;6674;49.152;11.918;2023-02-13T08:57:49;98024.56;;;4.54
13219;BMP180;6674;49.152;11.918;2023-02-13T09:00:16;98020.97;;;4.56
13219;BMP180;6674;49.152;11.918;2023-02-13T09:02:44;98023.09;;;4.61
13219;BMP180;6674;49.152;11.918;2023-02-13T09:05:10;98011.03;;;4.63
13219;BMP180;6674;49.152;11.918;2023-02-13T09:07:37;98003.09;;;4.66
13219;BMP180;6674;49.152;11.918;2023-02-13T09:10:06;98011.75;;;4.74
13219;BMP180;6674;49.152;11.918;2023-02-13T09:12:34;98012.28;;;4.77
13219;BMP180;6674;49.152;11.918;2023-02-13T09:15:00;98010.41;;;4.79
13219;BMP180;6674;49.152;11.918;2023-02-13T09:17:27;98011.06;;;4.81
13219;BMP180;6674;49.152;11.918;2023-02-13T09:19:54;98016.06;;;4.83
13219;BMP180;6674;49.152;11.918;2023-02-13T09:22:20;98012.44;;;4.85
13219;BMP180;6674;49.152;11.918;2023-02-13T09:24:47;98020.78;;;4.87
13219;BMP180;6674;49.152;11.918;2023-02-13T09:27:14;98017.97;;;4.90
13219;BMP180;6674;49.152;11.918;2023-02-13T09:29:42;98013.28;;;4.95
13219;BMP180;6674;49.152;11.918;2023-02-13T09:32:09;98009.75;;;4.96
13219;BMP180;6674;49.152;11.918;2023-02-13T09:34:35;98011.78;;;5.02
13219;BMP180;6674;49.152;11.918;2023-02-13T09:37:02;98014.09;;;5.05
13219;BMP180;6674;49.152;11.918;2023-02-13T09:39:28;98016.38;;;5.08
13219;BMP180;6674;49.152;11.918;2023-02-13T09:41:55;98009.13;;;5.13
13219;BMP180;6674;49.152;11.918;2023-02-13T09:44:28;98013.97;;;5.16
13219;BMP180;6674;49.152;11.918;2023-02-13T09:47:10;98009.41;;;5.19
13219;BMP180;6674;49.152;11.918;2023-02-13T09:49:43;98012.50;;;5.23
13219;BMP180;6674;49.152;11.918;2023-02-13T09:52:11;98014.53;;;5.29
13219;BMP180;6674;49.152;11.918;2023-02-13T09:54:37;98015.06;;;5.32
13219;BMP180;6674;49.152;11.918;2023-02-13T09:57:09;98018.03;;;5.37
13219;BMP180;6674;49.152;11.918;2023-02-13T09:59:46;98014.25;;;5.41
13219;BMP180;6674;49.152;11.918;2023-02-13T10:02:39;98018.97;;;5.46
13219;BMP180;6674;49.152;11.918;2023-02-13T10:05:20;98014.00;;;5.54
13219;BMP180;6674;49.152;11.918;2023-02-13T10:07:54;98018.53;;;5.59
13219;BMP180;6674;49.152;11.918;2023-02-13T10:10:30;98026.63;;;5.64
13219;BMP180;6674;49.152;11.918;2023-02-13T10:13:10;98020.19;;;5.70
13219;BMP180;6674;49.152;11.918;2023-02-13T10:15:45;98023.97;;;5.75
13219;BMP180;6674;49.152;11.918;2023-02-13T10:18:16;98030.31;;;5.81
13219;BMP180;6674;49.152;11.918;2023-02-13T10:20:48;98029.88;;;5.85
13219;BMP180;6674;49.152;11.918;2023-02-13T10:23:21;98025.84;;;5.92
13219;BMP180;6674;49.152;11.918;2023-02-13T10:25:53;98029.47;;;5.99
13219;BMP180;6674;49.152;11.918;2023-02-13T10:28:29;98031.63;;;6.03
13219;BMP180;6674;49.152;11.918;2023-02-13T10:31:02;98020.66;;;6.11
13219;BMP180;6674;49.152;11.918;2023-02-13T10:33:38;98026.06;;;6.17
13219;BMP180;6674;49.152;11.918;2023-02-13T10:36:15;98021.72;;;6.18
13219;BMP180;6674;49.152;11.918;2023-02-13T10:38:53;98023.09;;;6.22
13219;BMP180;6674;49.152;11.918;2023-02-13T10:41:24;98027.94;;;6.25
13219;BMP180;6674;49.152;11.918;2023-02-13T10:44:11;98022.75;;;6.34
13219;BMP180;6674;49.152;11.918;2023-02-13T10:46:47;98019.78;;;6.39
13219;BMP180;6674;49.152;11.918;2023-02-13T10:49:31;98017.88;;;6.41
13219;BMP180;6674;49.152;11.918;2023-02-13T10:52:06;98026.66;;;6.47
13219;BMP180;6674;49.152;11.918;2023-02-13T10:54:57;98019.47;;;6.51
13219;BMP180;6674;49.152;11.918;2023-02-13T10:57:39;98023.22;;;6.56
13219;BMP180;6674;49.152;11.918;2023-02-13T11:00:17;98013.47;;;6.60
13219;BMP180;6674;49.152;11.918;2023-02-13T11:02:44;98012.28;;;6.64
13219;BMP180;6674;49.152;11.918;2023-02-13T11:05:15;98014.38;;;6.68
13219;BMP180;6674;49.152;11.918;2023-02-13T11:07:44;98006.13;;;6.74
13219;BMP180;6674;49.152;11.918;2023-02-13T11:10:15;98003.94;;;6.79
13219;BMP180;6674;49.152;11.918;2023-02-13T11:12:41;98004.19;;;6.86
13219;BMP180;6674;49.152;11.918;2023-02-13T11:15:20;98006.84;;;6.93
13219;BMP180;6674;49.152;11.918;2023-02-13T11:17:48;98007.06;;;7.00
13219;BMP180;6674;49.152;11.918;2023-02-13T11:20:39;98002.03;;;7.08
13219;BMP180;6674;49.152;11.918;2023-02-13T11:23:17;98007.00;;;7.09
13219;BMP180;6674;49.152;11.918;2023-02-13T11:25:56;98012.94;;;7.10
13219;BMP180;6674;49.152;11.918;2023-02-13T11:28:23;98008.97;;;7.15
13219;BMP180;6674;49.152;11.918;2023-02-13T11:30:50;98019.34;;;7.23
13219;BMP180;6674;49.152;11.918;2023-02-13T11:33:26;98010.41;;;7.27
13219;BMP180;6674;49.152;11.918;2023-02-13T11:36:04;98010.63;;;7.33
13219;BMP180;6674;49.152;11.918;2023-02-13T11:38:31;98011.94;;;7.37
13219;BMP180;6674;49.152;11.918;2023-02-13T11:41:07;98018.41;;;7.41
13219;BMP180;6674;49.152;11.918;2023-02-13T11:43:47;98011.38;;;7.43
13219;BMP180;6674;49.152;11.918;2023-02-13T11:46:20;98009.44;;;7.45
13219;BMP180;6674;49.152;11.918;2023-02-13T11:48:58;98007.38;;;7.49
13219;BMP180;6674;49.152;11.918;2023-02-13T11:51:48;98007.59;;;7.55
13219;BMP180;6674;49.152;11.918;2023-02-13T11:54:25;98008.78;;;7.61
13219;BMP180;6674;49.152;11.918;2023-02-13T11:56:55;98012.03;;;7.63
13219;BMP180;6674;49.152;11.918;2023-02-13T11:59:30;98009.31;;;7.64
13219;BMP180;6674;49.152;11.918;2023-02-13T12:02:12;98017.72;;;7.39
13219;BMP180;6674;49.152;11.918;2023-02-13T12:04:39;98013.94;;;7.43
13219;BMP180;6674;49.152;11.918;2023-02-13T12:07:15;98004.31;;;7.45
13219;BMP180;6674;49.152;11.918;2023-02-13T12:09:47;97996.31;;;7.48
13219;BMP180;6674;49.152;11.918;2023-02-13T12:12:18;97999.41;;;7.52
13219;BMP180;6674;49.152;11.918;2023-02-13T12:14:47;98001.81;;;7.53
13219;BMP180;6674;49.152;11.918;2023-02-13T12:17:16;97988.00;;;7.54
13219;BMP180;6674;49.152;11.918;2023-02-13T12:19:46;97991.75;;;7.60
13219;BMP180;6674;49.152;11.918;2023-02-13T12:22:30;97983.41;;;7.58
13219;BMP180;6674;49.152;11.918;2023-02-13T12:25:24;97985.53;;;7.45
13219;BMP180;6674;49.152;11.918;2023-02-13T12:28:05;97984.78;;;7.52
13219;BMP180;6674;49.152;11.918;2023-02-13T12:30:46;97973.94;;;7.58
13219;BMP180;6674;49.152;11.918;2023-02-13T12:36:20;97973.28;;;7.56
13219;BMP180;6674;49.152;11.918;2023-02-13T12:39:08;97972.59;;;7.54
13219;BMP180;6674;49.152;11.918;2023-02-13T12:41:48;97970.50;;;7.50
13219;BMP180;6674;49.152;11.918;2023-02-13T12:47:28;97969.66;;;7.49
13219;BMP180;6674;49.152;11.918;2023-02-13T12:50:14;97965.34;;;7.50
13219;BMP180;6674;49.152;11.918;2023-02-13T12:52:51;97963.59;;;7.33
13219;BMP180;6674;49.152;11.918;2023-02-13T12:55:35;97963.09;;;7.29
13219;BMP180;6674;49.152;11.918;2023-02-13T12:58:16;97955.31;;;7.22
13219;BMP180;6674;49.152;11.918;2023-02-13T13:00:52;97957.28;;;7.28
13219;BMP180;6674;49.152;11.918;2023-02-13T13:03:45;97956.03;;;7.31
13219;BMP180;6674;49.152;11.918;2023-02-13T13:06:35;97946.59;;;7.32
13219;BMP180;6674;49.152;11.918;2023-02-13T13:09:17;97951.44;;;7.35
13219;BMP180;6674;49.152;11.918;2023-02-13T13:12:17;97952.72;;;7.39
13219;BMP180;6674;49.152;11.918;2023-02-13T13:14:52;97944.88;;;7.40
13219;BMP180;6674;49.152;11.918;2023-02-13T13:17:29;97944.88;;;7.40
13219;BMP180;6674;49.152;11.918;2023-02-13T13:20:06;97942.97;;;7.42
13219;BMP180;6674;49.152;11.918;2023-02-13T13:22:42;97944.94;;;7.48
13219;BMP180;6674;49.152;11.918;2023-02-13T13:25:17;97946.41;;;7.51
13219;BMP180;6674;49.152;11.918;2023-02-13T13:27:50;97942.59;;;7.55
13219;BMP180;6674;49.152;11.918;2023-02-13T13:30:20;97938.91;;;7.57
13219;BMP180;6674;49.152;11.918;2023-02-13T13:32:55;97940.53;;;7.58
13219;BMP180;6674;49.152;11.918;2023-02-13T13:35:23;97937.69;;;7.61
13219;BMP180;6674;49.152;11.918;2023-02-13T13:37:56;97936.69;;;7.62
13219;BMP180;6674;49.152;11.918;2023-02-13T13:40:36;97941.53;;;7.65
13219;BMP180;6674;49.152;11.918;2023-02-13T13:43:15;97941.25;;;7.68
13219;BMP180;6674;49.152;11.918;2023-02-13T13:45:45;97938.53;;;7.70
13219;BMP180;6674;49.152;11.918;2023-02-13T13:48:33;97933.84;;;7.65
13219;BMP180;6674;49.152;11.918;2023-02-13T13:51:04;97938.97;;;7.65
13219;BMP180;6674;49.152;11.918;2023-02-13T13:53:31;97940.59;;;7.66
13219;BMP180;6674;49.152;11.918;2023-02-13T13:56:00;97940.75;;;7.65
13219;BMP180;6674;49.152;11.918;2023-02-13T13:58:36;97935.75;;;7.63
13219;BMP180;6674;49.152;11.918;2023-02-13T14:01:20;97938.47;;;7.62
13219;BMP180;6674;49.152;11.918;2023-02-13T14:03:49;97937.97;;;7.58
13219;BMP180;6674;49.152;11.918;2023-02-13T14:06:17;97933.19;;;7.63
13219;BMP180;6674;49.152;11.918;2023-02-13T14:11:46;97938.31;;;7.63
13219;BMP180;6674;49.152;11.918;2023-02-13T14:14:43;97938.03;;;7.66
13219;BMP180;6674;49.152;11.918;2023-02-13T14:17:14;97940.59;;;7.66
13219;BMP180;6674;49.152;11.918;2023-02-13T14:19:45;97933.19;;;7.63
13219;BMP180;6674;49.152;11.918;2023-02-13T14:22:30;97939.38;;;7.53
13219;BMP180;6674;49.152;11.918;2023-02-13T14:25:00;97940.84;;;7.55
13219;BMP180;6674;49.152;11.918;2023-02-13T14:27:30;97934.47;;;7.59
13219;BMP180;6674;49.152;11.918;2023-02-13T14:29:59;97933.91;;;7.56
13219;BMP180;6674;49.152;11.918;2023-02-13T14:32:30;97935.56;;;7.39
13219;BMP180;6674;49.152;11.918;2023-02-13T14:34:58;97942.03;;;7.43
13219;BMP180;6674;49.152;11.918;2023-02-13T14:37:31;97936.88;;;7.43
13219;BMP180;6674;49.152;11.918;2023-02-13T14:43:26;97939.31;;;7.28
13219;BMP180;6674;49.152;11.918;2023-02-13T14:46:01;97930.47;;;7.22
13219;BMP180;6674;49.152;11.918;2023-02-13T14:48:36;97939.91;;;7.22
13219;BMP180;6674;49.152;11.918;2023-02-13T14:51:05;97932.53;;;7.19
13219;BMP180;6674;49.152;11.918;2023-02-13T14:53:40;97924.38;;;7.06
13219;BMP180;6674;49.152;11.918;2023-02-13T14:56:13;97918.94;;;6.91
13219;BMP180;6674;49.152;11.918;2023-02-13T14:58:47;97923.72;;;6.87
13219;BMP180;6674;49.152;11.918;2023-02-13T15:01:24;97922.59;;;6.89
13219;BMP180;6674;49.152;11.918;2023-02-13T15:03:57;97922.09;;;6.86
13219;BMP180;6674;49.152;11.918;2023-02-13T15:06:27;97925.91;;;6.82